createdAt,value
2022-12-08T00:01:35.109Z,1.68
2022-12-08T00:04:04.451Z,1.63
2022-12-08T00:06:59.269Z,1.52
2022-12-08T00:09:42.165Z,1.32
2022-12-08T00:12:13.046Z,1.29
2022-12-08T00:14:45.522Z,1.30
2022-12-08T00:17:15.442Z,1.24
2022-12-08T00:19:44.089Z,1.19
2022-12-08T00:22:13.364Z,1.14
2022-12-08T00:24:44.181Z,1.13
2022-12-08T00:27:13.590Z,1.14
2022-12-08T00:29:43.716Z,1.18
2022-12-08T00:32:11.478Z,1.24
2022-12-08T00:34:38.962Z,1.27
2022-12-08T00:37:06.480Z,1.32
2022-12-08T00:39:33.700Z,1.34
2022-12-08T00:42:13.188Z,1.31
2022-12-08T00:44:42.523Z,1.44
2022-12-08T00:47:10.749Z,1.47
2022-12-08T00:49:38.283Z,1.56
2022-12-08T00:52:05.578Z,1.51
2022-12-08T00:54:32.834Z,1.39
2022-12-08T00:57:00.039Z,1.32
2022-12-08T00:59:27.454Z,1.44
2022-12-08T01:01:54.830Z,1.41
2022-12-08T01:04:22.224Z,1.29
2022-12-08T01:06:49.826Z,1.27
2022-12-08T01:09:18.390Z,1.21
2022-12-08T01:11:46.900Z,1.28
2022-12-08T01:14:14.633Z,1.25
2022-12-08T01:16:42.614Z,1.15
2022-12-08T01:19:13.934Z,1.23
2022-12-08T01:21:42.608Z,1.22
2022-12-08T01:24:14.801Z,1.23
2022-12-08T01:26:42.473Z,1.18
2022-12-08T01:29:10.808Z,1.22
2022-12-08T01:31:39.208Z,1.25
2022-12-08T01:34:07.493Z,1.25
2022-12-08T01:36:39.022Z,1.26
2022-12-08T01:39:11.010Z,1.31
2022-12-08T01:41:38.853Z,1.37
2022-12-08T01:44:09.434Z,1.32
2022-12-08T01:46:42.210Z,1.26
2022-12-08T01:49:15.675Z,1.30
2022-12-08T01:52:08.103Z,1.27
2022-12-08T01:54:42.338Z,1.22
2022-12-08T01:57:38.843Z,1.23
2022-12-08T02:00:10.125Z,1.11
2022-12-08T02:02:50.481Z,1.06
2022-12-08T02:05:21.203Z,1.01
2022-12-08T02:07:49.557Z,0.96
2022-12-08T02:10:21.380Z,0.88
2022-12-08T02:12:52.118Z,0.87
2022-12-08T02:15:23.269Z,0.86
2022-12-08T02:18:09.496Z,0.81
2022-12-08T02:20:51.708Z,0.78
2022-12-08T02:23:35.647Z,0.83
2022-12-08T02:26:30.534Z,0.80
2022-12-08T02:29:00.728Z,0.89
2022-12-08T02:31:46.895Z,0.85
2022-12-08T02:34:39.686Z,0.81
2022-12-08T02:37:16.704Z,0.80
2022-12-08T02:40:02.747Z,0.85
2022-12-08T02:42:47.220Z,0.95
2022-12-08T02:45:25.706Z,1.09
2022-12-08T02:47:54.313Z,1.10
2022-12-08T02:50:21.845Z,1.19
2022-12-08T02:52:49.368Z,1.23
2022-12-08T02:55:22.506Z,1.24
2022-12-08T02:57:58.600Z,1.26
2022-12-08T03:00:29.720Z,1.27
2022-12-08T03:03:16.312Z,1.32
2022-12-08T03:06:07.012Z,1.37
2022-12-08T03:08:37.283Z,1.41
2022-12-08T03:11:37.172Z,1.45
2022-12-08T03:14:09.077Z,1.46
2022-12-08T03:16:40.488Z,1.46
2022-12-08T03:19:21.762Z,1.46
2022-12-08T03:21:53.670Z,1.45
2022-12-08T03:24:23.395Z,1.38
2022-12-08T03:27:03.806Z,1.42
2022-12-08T03:29:32.669Z,1.41
2022-12-08T03:32:33.910Z,1.29
2022-12-08T03:35:09.420Z,1.25
2022-12-08T03:37:38.623Z,1.28
2022-12-08T03:40:09.166Z,1.27
2022-12-08T03:42:36.820Z,1.15
2022-12-08T03:45:05.212Z,1.13
2022-12-08T03:47:33.131Z,1.12
2022-12-08T03:50:00.839Z,1.10
2022-12-08T03:52:28.392Z,1.10
2022-12-08T03:54:55.924Z,1.16
2022-12-08T03:57:23.244Z,1.13
2022-12-08T03:59:50.640Z,1.11
2022-12-08T04:02:18.000Z,1.12
2022-12-08T04:04:45.394Z,1.16
2022-12-08T04:07:12.772Z,1.17
2022-12-08T04:09:41.657Z,1.16
2022-12-08T04:12:09.652Z,1.13
2022-12-08T04:14:37.114Z,1.19
2022-12-08T04:17:04.646Z,1.24
2022-12-08T04:19:32.094Z,1.36
2022-12-08T04:21:59.570Z,1.38
2022-12-08T04:24:26.986Z,1.40
2022-12-08T04:26:54.469Z,1.35
2022-12-08T04:29:21.942Z,1.23
2022-12-08T04:31:49.343Z,1.13
2022-12-08T04:34:16.682Z,1.12
2022-12-08T04:36:44.025Z,1.05
2022-12-08T04:39:11.462Z,1.12
2022-12-08T04:41:38.873Z,1.09
2022-12-08T04:44:06.067Z,1.01
2022-12-08T04:46:33.330Z,1.10
2022-12-08T04:49:00.578Z,1.10
2022-12-08T04:51:27.960Z,1.10
2022-12-08T04:53:55.307Z,1.04
2022-12-08T04:56:22.685Z,1.01
2022-12-08T04:58:49.955Z,0.96
2022-12-08T05:01:17.221Z,1.03
2022-12-08T05:03:44.406Z,0.99
2022-12-08T05:06:14.915Z,1.06
2022-12-08T05:08:43.485Z,0.94
2022-12-08T05:11:12.735Z,0.97
2022-12-08T05:13:40.365Z,0.97
2022-12-08T05:16:10.834Z,0.85
2022-12-08T05:18:39.862Z,0.82
2022-12-08T05:21:07.841Z,0.93
2022-12-08T05:23:36.155Z,0.89
2022-12-08T05:26:03.696Z,0.86
2022-12-08T05:28:46.343Z,0.92
2022-12-08T05:31:15.279Z,0.86
2022-12-08T05:33:43.942Z,0.67
2022-12-08T05:36:14.890Z,0.62
2022-12-08T05:38:43.313Z,0.59
2022-12-08T05:41:17.004Z,0.47
2022-12-08T05:43:44.950Z,0.42
2022-12-08T05:46:13.312Z,0.32
2022-12-08T05:48:41.283Z,0.27
2022-12-08T05:51:18.320Z,0.25
2022-12-08T05:53:46.935Z,0.24
2022-12-08T05:56:14.726Z,0.17
2022-12-08T05:58:42.948Z,0.20
2022-12-08T06:01:28.078Z,0.24
2022-12-08T06:03:57.089Z,0.32
2022-12-08T06:06:24.898Z,0.26
2022-12-08T06:08:53.124Z,0.28
2022-12-08T06:11:25.461Z,0.39
2022-12-08T06:13:53.868Z,0.51
2022-12-08T06:16:21.312Z,0.60
2022-12-08T06:18:49.655Z,0.57
2022-12-08T06:21:17.672Z,0.45
2022-12-08T06:23:48.885Z,0.29
2022-12-08T06:26:17.497Z,0.34
2022-12-08T06:28:45.409Z,0.44
2022-12-08T06:31:18.791Z,0.64
2022-12-08T06:33:47.040Z,0.45
2022-12-08T06:36:16.972Z,0.35
2022-12-08T06:38:44.660Z,0.47
2022-12-08T06:41:13.420Z,0.37
2022-12-08T06:43:41.235Z,0.45
2022-12-08T06:46:13.929Z,0.38
2022-12-08T06:48:42.812Z,0.47
2022-12-08T06:51:17.219Z,0.58
2022-12-08T06:53:46.563Z,0.74
2022-12-08T06:56:16.241Z,0.55
2022-12-08T06:58:49.018Z,0.29
2022-12-08T07:01:20.064Z,0.10
2022-12-08T07:03:47.971Z,0.07
2022-12-08T07:06:18.664Z,0.41
2022-12-08T07:08:46.110Z,0.38
2022-12-08T07:11:19.653Z,0.37
2022-12-08T07:13:48.977Z,0.23
2022-12-08T07:16:16.704Z,0.29
2022-12-08T07:18:44.341Z,0.33
2022-12-08T07:21:14.936Z,0.35
2022-12-08T07:23:42.995Z,0.13
2022-12-08T07:26:12.209Z,0.29
2022-12-08T07:28:41.601Z,-0.03
2022-12-08T07:31:18.147Z,0.21
2022-12-08T07:33:45.921Z,0.01
2022-12-08T07:36:13.589Z,-0.14
2022-12-08T07:38:41.277Z,-0.17
2022-12-08T07:41:19.402Z,-0.19
2022-12-08T07:43:47.037Z,-0.14
2022-12-08T07:46:15.928Z,-0.11
2022-12-08T07:48:43.894Z,0.03
2022-12-08T07:51:14.132Z,0.07
2022-12-08T07:53:51.574Z,0.20
2022-12-08T07:56:22.135Z,0.12
2022-12-08T07:58:49.577Z,0.42
2022-12-08T08:01:21.437Z,0.39
2022-12-08T08:03:49.699Z,0.41
2022-12-08T08:06:17.215Z,0.59
2022-12-08T08:08:45.131Z,0.58
2022-12-08T08:11:17.397Z,0.32
2022-12-08T08:13:49.755Z,0.34
2022-12-08T08:16:18.346Z,0.30
2022-12-08T08:18:51.174Z,0.23
2022-12-08T08:24:08.855Z,0.04
2022-12-08T08:26:37.360Z,0.17
2022-12-08T08:29:05.302Z,0.09
2022-12-08T08:31:32.996Z,0.13
2022-12-08T08:34:05.107Z,-0.06
2022-12-08T08:36:33.934Z,-0.08
2022-12-08T08:39:01.415Z,0.08
2022-12-08T08:41:31.631Z,0.16
2022-12-08T08:43:59.203Z,0.21
2022-12-08T08:46:27.522Z,0.11
2022-12-08T08:48:55.081Z,0.12
2022-12-08T08:51:23.710Z,0.27
2022-12-08T08:53:51.187Z,0.34
2022-12-08T08:56:20.333Z,0.44
2022-12-08T08:58:49.719Z,0.46
2022-12-08T09:01:25.715Z,0.41
2022-12-08T09:03:56.496Z,0.45
2022-12-08T09:06:24.768Z,0.54
2022-12-08T09:08:54.629Z,0.55
2022-12-08T09:11:26.262Z,0.59
2022-12-08T09:13:54.853Z,0.64
2022-12-08T09:16:23.045Z,0.64
2022-12-08T09:18:51.220Z,0.73
2022-12-08T09:21:22.613Z,0.88
2022-12-08T09:23:51.867Z,0.99
2022-12-08T09:26:22.525Z,1.01
2022-12-08T09:28:51.681Z,1.08
2022-12-08T09:31:21.257Z,1.19
2022-12-08T09:33:51.677Z,1.28
2022-12-08T09:36:19.960Z,1.28
2022-12-08T09:38:49.273Z,1.41
2022-12-08T09:41:37.862Z,1.51
2022-12-08T09:44:26.937Z,1.58
2022-12-08T09:46:59.058Z,1.61
2022-12-08T09:49:40.196Z,1.66
2022-12-08T09:52:18.455Z,1.62
2022-12-08T09:54:46.025Z,1.67
2022-12-08T09:57:15.845Z,1.64
2022-12-08T09:59:52.856Z,1.59
2022-12-08T10:02:24.261Z,1.59
2022-12-08T10:04:58.648Z,1.60
2022-12-08T10:07:40.298Z,1.61
2022-12-08T10:10:24.225Z,1.61
2022-12-08T10:13:07.347Z,1.54
2022-12-08T10:15:44.349Z,1.53
2022-12-08T10:18:20.791Z,1.45
2022-12-08T10:20:50.781Z,1.58
2022-12-08T10:23:35.824Z,1.52
2022-12-08T10:26:11.987Z,1.58
2022-12-08T10:28:44.875Z,1.60
2022-12-08T10:31:25.010Z,1.52
2022-12-08T10:34:12.039Z,1.52
2022-12-08T10:36:49.463Z,1.58
2022-12-08T10:39:43.950Z,1.64
2022-12-08T10:42:18.707Z,1.76
2022-12-08T10:44:57.872Z,1.65
2022-12-08T10:47:30.461Z,1.62
2022-12-08T10:50:17.479Z,1.64
2022-12-08T10:52:45.525Z,1.64
2022-12-08T10:55:19.594Z,1.52
2022-12-08T10:57:55.096Z,1.49
2022-12-08T11:00:28.760Z,1.44
2022-12-08T11:03:05.135Z,1.46
2022-12-08T11:05:35.584Z,1.38
2022-12-08T11:08:05.320Z,1.23
2022-12-08T11:10:53.122Z,1.19
2022-12-08T11:13:27.784Z,1.32
2022-12-08T11:15:56.991Z,1.22
2022-12-08T11:18:40.695Z,1.26
2022-12-08T11:21:15.573Z,1.28
2022-12-08T11:23:48.090Z,1.39
2022-12-08T11:26:31.957Z,1.30
2022-12-08T11:28:59.583Z,1.45
2022-12-08T11:31:29.657Z,1.17
2022-12-08T11:33:57.483Z,1.11
2022-12-08T11:36:27.927Z,1.25
2022-12-08T11:39:02.913Z,1.14
2022-12-08T11:41:41.060Z,1.07
2022-12-08T11:44:29.180Z,1.09
2022-12-08T11:47:02.749Z,1.21
2022-12-08T11:49:37.809Z,1.35
2022-12-08T11:52:29.353Z,1.53
2022-12-08T11:55:22.391Z,1.78
2022-12-08T11:57:52.004Z,1.90
2022-12-08T12:00:19.845Z,1.81
2022-12-08T12:02:55.372Z,1.76
2022-12-08T12:08:58.410Z,1.93
2022-12-08T12:12:19.362Z,2.04
2022-12-08T12:14:57.249Z,1.94
2022-12-08T12:17:39.937Z,1.77
2022-12-08T12:20:32.972Z,1.77
2022-12-08T12:23:11.416Z,1.67
2022-12-08T12:25:51.172Z,1.59
2022-12-08T12:28:22.688Z,1.59
2022-12-08T12:31:06.559Z,1.48
2022-12-08T12:33:36.180Z,1.40
2022-12-08T12:36:07.856Z,1.50
2022-12-08T12:38:57.634Z,1.62
2022-12-08T12:41:33.034Z,1.62
2022-12-08T12:44:13.141Z,1.58
2022-12-08T12:46:48.522Z,1.52
2022-12-08T12:49:40.704Z,1.79
2022-12-08T12:52:18.129Z,1.84
2022-12-08T12:55:05.617Z,1.81
2022-12-08T12:57:38.680Z,1.88
2022-12-08T13:00:09.381Z,1.90
2022-12-08T13:02:49.184Z,2.03
2022-12-08T13:05:29.271Z,2.29
2022-12-08T13:08:05.177Z,2.25
2022-12-08T13:10:41.340Z,2.24
2022-12-08T13:13:16.516Z,2.14
2022-12-08T13:15:52.939Z,2.20
2022-12-08T13:18:25.177Z,2.33
2022-12-08T13:21:11.162Z,2.32
2022-12-08T13:23:38.620Z,2.33
2022-12-08T13:26:09.393Z,2.57
2022-12-08T13:29:17.888Z,2.56
2022-12-08T13:31:51.048Z,2.60
2022-12-08T13:34:29.281Z,2.58
2022-12-08T13:37:11.876Z,2.31
2022-12-08T13:39:39.517Z,2.37
2022-12-08T13:42:12.838Z,2.38
2022-12-08T13:46:12.238Z,2.36
2022-12-08T13:48:26.669Z,2.46
2022-12-08T13:57:10.560Z,2.72
2022-12-08T13:59:45.003Z,2.81
2022-12-08T14:02:46.873Z,2.74
2022-12-08T14:05:40.621Z,2.87
2022-12-08T14:08:10.109Z,2.97
2022-12-08T14:10:37.778Z,2.93
2022-12-08T14:13:06.700Z,3.04
2022-12-08T14:15:38.243Z,2.81
2022-12-08T14:18:21.380Z,2.77
2022-12-08T14:21:22.393Z,2.82
2022-12-08T14:23:49.881Z,2.91
2022-12-08T14:26:18.068Z,2.99
2022-12-08T14:28:45.608Z,3.05
2022-12-08T14:31:14.727Z,3.11
2022-12-08T14:33:43.214Z,3.00
2022-12-08T14:36:12.411Z,3.03
2022-12-08T14:38:40.160Z,2.99
2022-12-08T14:41:10.096Z,2.96
2022-12-08T14:43:37.838Z,2.91
2022-12-08T14:46:20.397Z,2.92
2022-12-08T14:48:48.180Z,3.11
2022-12-08T14:51:21.686Z,2.88
2022-12-08T14:53:58.790Z,2.89
2022-12-08T14:56:26.385Z,2.86
2022-12-08T14:59:04.949Z,2.86
2022-12-08T15:01:32.649Z,2.82
2022-12-08T15:04:09.240Z,2.92
2022-12-08T15:06:37.144Z,2.87
2022-12-08T15:09:17.910Z,2.76
2022-12-08T15:11:45.460Z,2.77
2022-12-08T15:14:32.973Z,2.87
2022-12-08T15:17:00.971Z,2.93
2022-12-08T15:19:34.086Z,2.97
2022-12-08T15:22:23.075Z,2.99
2022-12-08T15:24:50.641Z,3.01
2022-12-08T15:27:19.377Z,3.03
2022-12-08T15:29:48.013Z,3.23
2022-12-08T15:32:21.518Z,3.17
2022-12-08T15:34:49.316Z,3.17
2022-12-08T15:37:24.789Z,3.18
2022-12-08T15:39:53.181Z,3.10
2022-12-08T15:42:20.638Z,3.19
2022-12-08T15:44:48.056Z,3.18
2022-12-08T15:47:20.042Z,3.10
2022-12-08T15:49:49.664Z,3.12
2022-12-08T15:52:20.402Z,3.00
2022-12-08T15:54:49.144Z,2.93
2022-12-08T15:58:04.097Z,2.94
2022-12-08T16:09:23.763Z,2.85
2022-12-08T16:12:10.647Z,2.85
2022-12-08T16:17:28.034Z,2.76
2022-12-08T16:19:55.725Z,2.77
2022-12-08T16:25:18.899Z,2.64
2022-12-08T16:30:37.261Z,2.74
2022-12-08T16:33:05.183Z,2.76
2022-12-08T16:35:33.034Z,2.66
2022-12-08T16:38:00.652Z,2.66
2022-12-08T16:40:28.153Z,2.63
2022-12-08T16:42:55.417Z,2.56
2022-12-08T16:45:24.315Z,2.53
2022-12-08T16:47:54.635Z,2.46
2022-12-08T16:50:24.971Z,2.41
2022-12-08T16:53:01.586Z,2.43
2022-12-08T16:55:29.218Z,2.36
2022-12-08T16:57:56.880Z,2.56
2022-12-08T17:00:26.423Z,2.69
2022-12-08T17:02:54.926Z,2.59
2022-12-08T17:05:25.148Z,2.69
2022-12-08T17:07:54.093Z,2.79
2022-12-08T17:10:25.305Z,2.75
2022-12-08T17:12:53.272Z,2.93
2022-12-08T17:15:23.818Z,2.84
2022-12-08T17:17:52.214Z,3.00
2022-12-08T17:20:22.578Z,2.99
2022-12-08T17:22:53.985Z,2.78
2022-12-08T17:25:21.619Z,2.88
2022-12-08T17:27:49.110Z,2.85
2022-12-08T17:30:17.885Z,2.84
2022-12-08T17:32:45.366Z,2.89
2022-12-08T17:35:13.509Z,2.92
2022-12-08T17:37:41.077Z,2.90
2022-12-08T17:40:09.378Z,2.93
2022-12-08T17:42:38.116Z,2.99
2022-12-08T17:45:07.971Z,2.91
2022-12-08T17:47:36.891Z,3.07
2022-12-08T17:50:06.752Z,3.10
2022-12-08T17:52:34.655Z,3.13
2022-12-08T17:55:02.195Z,3.19
2022-12-08T17:57:30.947Z,3.15
2022-12-08T17:59:58.495Z,3.40
2022-12-08T18:02:26.242Z,3.36
2022-12-08T18:04:53.921Z,3.31
2022-12-08T18:07:21.419Z,3.35
2022-12-08T18:09:48.635Z,3.30
2022-12-08T18:12:20.699Z,3.24
2022-12-08T18:14:52.384Z,3.32
2022-12-08T18:17:20.674Z,3.26
2022-12-08T18:19:48.453Z,3.16
2022-12-08T18:22:16.185Z,3.05
2022-12-08T18:24:44.150Z,3.13
2022-12-08T18:27:11.555Z,3.03
2022-12-08T18:29:39.168Z,3.12
2022-12-08T18:32:08.412Z,3.11
2022-12-08T18:34:36.105Z,3.08
2022-12-08T18:37:03.907Z,2.96
2022-12-08T18:39:33.230Z,2.89
2022-12-08T18:42:21.934Z,2.95
2022-12-08T18:44:56.307Z,2.86
2022-12-08T18:47:24.270Z,2.98
2022-12-08T18:49:51.826Z,2.97
2022-12-08T18:52:26.913Z,2.88
2022-12-08T18:55:06.420Z,2.82
2022-12-08T18:57:37.519Z,2.78
2022-12-08T19:00:09.343Z,2.80
2022-12-08T19:02:38.918Z,2.81
2022-12-08T19:05:08.105Z,2.83
2022-12-08T19:07:35.932Z,2.96
2022-12-08T19:10:05.899Z,3.01
2022-12-08T19:12:33.885Z,2.97
2022-12-08T19:15:01.428Z,2.87
2022-12-08T19:17:29.822Z,2.89
2022-12-08T19:19:57.314Z,3.14
2022-12-08T19:22:24.731Z,3.10
2022-12-08T19:24:51.953Z,3.02
2022-12-08T19:27:19.739Z,3.04
2022-12-08T19:29:47.321Z,3.08
2022-12-08T19:32:14.822Z,3.00
2022-12-08T19:34:46.838Z,3.18
2022-12-08T19:37:14.351Z,3.07
2022-12-08T19:40:00.592Z,3.13
2022-12-08T19:42:46.704Z,3.14
2022-12-08T19:45:17.881Z,3.17
2022-12-08T19:47:45.685Z,3.23
2022-12-08T19:50:33.874Z,3.18
2022-12-08T19:53:02.271Z,3.22
2022-12-08T19:55:29.758Z,3.24
2022-12-08T19:57:57.406Z,3.23
2022-12-08T20:00:24.805Z,3.16
2022-12-08T20:02:52.432Z,2.93
2022-12-08T20:05:20.890Z,2.91
2022-12-08T20:07:48.571Z,2.85
2022-12-08T20:10:19.718Z,2.71
2022-12-08T20:12:47.314Z,2.70
2022-12-08T20:15:15.016Z,2.79
2022-12-08T20:17:43.045Z,2.73
2022-12-08T20:20:12.940Z,2.64
2022-12-08T20:22:40.795Z,2.57
2022-12-08T20:25:12.838Z,2.60
2022-12-08T20:27:41.761Z,2.45
2022-12-08T20:30:15.068Z,2.39
2022-12-08T20:32:45.453Z,2.26
2022-12-08T20:35:13.202Z,2.30
2022-12-08T20:37:40.654Z,2.39
2022-12-08T20:40:08.722Z,2.43
2022-12-08T20:42:36.332Z,2.43
2022-12-08T20:45:06.582Z,2.40
2022-12-08T20:47:34.950Z,2.39
2022-12-08T20:50:03.730Z,2.52
2022-12-08T20:52:32.238Z,2.54
2022-12-08T20:54:59.705Z,2.66
2022-12-08T20:57:27.525Z,2.67
2022-12-08T20:59:55.008Z,2.59
2022-12-08T21:02:22.872Z,2.57
2022-12-08T21:04:50.444Z,2.53
2022-12-08T21:07:18.099Z,2.55
2022-12-08T21:09:45.891Z,2.49
2022-12-08T21:12:13.623Z,2.43
2022-12-08T21:14:41.018Z,2.46
2022-12-08T21:17:08.420Z,2.35
2022-12-08T21:19:36.004Z,2.29
2022-12-08T21:22:03.457Z,2.27
2022-12-08T21:24:34.262Z,2.29
2022-12-08T21:27:02.657Z,2.30
2022-12-08T21:29:30.203Z,2.30
2022-12-08T21:31:58.765Z,2.34
2022-12-08T21:34:31.868Z,2.34
2022-12-08T21:37:00.655Z,2.51
2022-12-08T21:39:29.840Z,2.45
2022-12-08T21:42:16.288Z,2.53
2022-12-08T21:44:44.149Z,2.49
2022-12-08T21:47:12.747Z,2.57
2022-12-08T21:49:40.472Z,2.70
2022-12-08T21:52:07.893Z,2.80
2022-12-08T21:54:36.422Z,2.86
2022-12-08T21:57:04.147Z,2.84
2022-12-08T21:59:31.847Z,2.91
2022-12-08T22:01:59.504Z,2.85
2022-12-08T22:04:27.515Z,2.79
2022-12-08T22:06:55.129Z,2.80
2022-12-08T22:09:22.804Z,2.91
2022-12-08T22:11:50.551Z,3.04
2022-12-08T22:14:18.209Z,3.03
2022-12-08T22:16:45.585Z,3.03
2022-12-08T22:19:13.520Z,3.01
2022-12-08T22:21:41.595Z,3.25
2022-12-08T22:24:09.489Z,3.10
2022-12-08T22:26:37.093Z,3.04
2022-12-08T22:29:04.524Z,3.12
2022-12-08T22:31:32.207Z,3.10
2022-12-08T22:33:59.964Z,3.05
2022-12-08T22:36:28.450Z,3.03
2022-12-08T22:38:56.540Z,3.00
2022-12-08T22:41:24.075Z,3.01
2022-12-08T22:43:51.724Z,3.00
2022-12-08T22:46:24.451Z,2.99
2022-12-08T22:48:54.153Z,3.02
2022-12-08T22:51:22.073Z,3.05
2022-12-08T22:53:50.502Z,3.10
2022-12-08T22:56:19.704Z,3.07
2022-12-08T22:58:47.408Z,2.98
2022-12-08T23:01:34.115Z,2.98
2022-12-08T23:04:02.115Z,3.06
2022-12-08T23:06:30.500Z,3.15
2022-12-08T23:08:58.541Z,3.21
2022-12-08T23:11:29.768Z,3.18
2022-12-08T23:14:01.078Z,3.26
2022-12-08T23:16:30.768Z,3.23
2022-12-08T23:18:59.166Z,3.19
2022-12-08T23:21:27.053Z,3.14
2022-12-08T23:23:54.727Z,3.15
2022-12-08T23:26:24.811Z,3.09
2022-12-08T23:28:52.823Z,3.10
2022-12-08T23:31:21.496Z,3.03
2022-12-08T23:33:49.313Z,2.91
2022-12-08T23:36:18.376Z,2.71
2022-12-08T23:38:46.579Z,2.73
2022-12-08T23:41:15.552Z,2.71
2022-12-08T23:43:45.502Z,2.87
2022-12-08T23:46:14.408Z,2.88
2022-12-08T23:48:42.179Z,2.91
2022-12-08T23:51:10.530Z,2.95
2022-12-08T23:53:38.204Z,2.97
2022-12-08T23:56:08.986Z,3.07
2022-12-08T23:58:37.549Z,3.08
